createdAt,value
2023-04-19T00:00:54.660Z,20.88
2023-04-19T00:06:00.726Z,21.02
2023-04-19T00:11:02.454Z,19.80
2023-04-19T00:16:04.363Z,20.00
2023-04-19T00:21:06.428Z,18.55
2023-04-19T00:26:08.078Z,26.23
2023-04-19T00:31:09.645Z,19.42
2023-04-19T00:36:12.480Z,24.67
2023-04-19T00:41:14.066Z,20.17
2023-04-19T00:46:16.039Z,20.90
2023-04-19T00:51:17.988Z,20.25
2023-04-19T00:56:22.210Z,18.52
2023-04-19T01:01:23.780Z,21.75
2023-04-19T01:06:28.182Z,20.17
2023-04-19T01:11:29.862Z,20.40
2023-04-19T01:16:33.365Z,21.08
2023-04-19T01:21:39.323Z,18.85
2023-04-19T01:26:40.877Z,20.83
2023-04-19T01:31:43.398Z,20.40
2023-04-19T01:36:45.001Z,19.48
2023-04-19T01:41:47.293Z,20.30
2023-04-19T01:46:48.950Z,19.77
2023-04-19T01:51:50.697Z,19.50
2023-04-19T01:56:52.322Z,18.98
2023-04-19T02:01:54.582Z,19.80
2023-04-19T02:06:56.182Z,20.85
2023-04-19T02:11:57.886Z,20.10
2023-04-19T02:17:01.666Z,19.50
2023-04-19T02:22:03.235Z,20.70
2023-04-19T02:27:04.788Z,20.42
2023-04-19T02:32:07.813Z,18.27
2023-04-19T02:37:09.445Z,19.70
2023-04-19T02:42:11.108Z,21.40
2023-04-19T02:47:12.633Z,19.20
2023-04-19T02:52:14.463Z,21.52
2023-04-19T02:57:16.589Z,21.10
2023-04-19T03:02:18.973Z,18.65
2023-04-19T03:07:21.121Z,23.60
2023-04-19T03:12:22.765Z,21.55
2023-04-19T03:17:24.532Z,21.48
2023-04-19T03:22:27.428Z,22.42
2023-04-19T03:27:29.098Z,22.15
2023-04-19T03:32:35.354Z,24.35
2023-04-19T03:37:37.966Z,23.08
2023-04-19T03:42:39.943Z,22.83
2023-04-19T03:47:46.740Z,23.25
2023-04-19T03:52:48.409Z,22.33
2023-04-19T03:57:50.314Z,23.25
2023-04-19T04:02:58.968Z,21.23
2023-04-19T04:08:01.082Z,20.95
2023-04-19T04:13:02.834Z,20.70
2023-04-19T04:18:28.589Z,23.05
2023-04-19T04:23:30.762Z,21.63
2023-04-19T04:28:33.672Z,24.13
2023-04-19T04:33:36.029Z,21.25
2023-04-19T04:38:39.281Z,20.45
2023-04-19T04:43:41.439Z,19.85
2023-04-19T04:48:43.979Z,22.65
2023-04-19T04:53:46.009Z,20.10
2023-04-19T04:58:47.913Z,19.33
2023-04-19T05:03:57.347Z,19.02
2023-04-19T05:08:59.278Z,21.77
2023-04-19T05:14:07.247Z,20.35
2023-04-19T05:19:09.554Z,18.42
2023-04-19T05:24:17.471Z,18.27
2023-04-19T05:29:19.347Z,19.52
2023-04-19T05:34:25.076Z,18.40
2023-04-19T05:39:29.230Z,18.88
2023-04-19T05:44:33.034Z,17.55
2023-04-19T05:49:34.828Z,19.05
2023-04-19T05:54:52.032Z,17.60
2023-04-19T05:59:53.995Z,17.02
2023-04-19T06:05:02.502Z,16.88
2023-04-19T06:10:07.885Z,18.90
2023-04-19T06:15:09.880Z,16.23
2023-04-19T06:20:12.304Z,15.75
2023-04-19T06:25:13.879Z,17.60
2023-04-19T06:30:15.520Z,19.40
2023-04-19T06:35:17.392Z,19.88
2023-04-19T06:40:19.149Z,17.30
2023-04-19T06:45:20.700Z,17.25
2023-04-19T06:50:22.777Z,17.40
2023-04-19T06:55:24.437Z,16.52
2023-04-19T07:00:26.403Z,14.23
2023-04-19T07:05:28.994Z,16.23
2023-04-19T07:10:30.607Z,16.00
2023-04-19T07:15:32.421Z,16.15
2023-04-19T07:20:34.289Z,15.43
2023-04-19T07:25:35.877Z,15.20
2023-04-19T07:30:37.560Z,15.48
2023-04-19T07:35:40.173Z,16.48
2023-04-19T07:40:41.728Z,14.10
2023-04-19T07:45:43.354Z,14.10
2023-04-19T07:50:44.952Z,14.77
2023-04-19T07:55:46.495Z,13.88
2023-04-19T08:00:48.096Z,14.27
2023-04-19T08:05:49.864Z,13.65
2023-04-19T08:10:54.716Z,15.50
2023-04-19T08:21:01.437Z,13.10
2023-04-19T08:26:03.542Z,12.90
2023-04-19T08:31:08.575Z,13.50
2023-04-19T08:36:10.442Z,12.98
2023-04-19T08:41:13.692Z,10.77
2023-04-19T08:46:15.377Z,10.35
2023-04-19T08:51:19.014Z,10.45
2023-04-19T08:56:34.532Z,11.07
2023-04-19T09:01:37.245Z,11.57
2023-04-19T09:06:40.026Z,13.63
2023-04-19T09:11:42.128Z,10.27
2023-04-19T09:16:44.739Z,11.77
2023-04-19T09:21:51.921Z,12.23
2023-04-19T09:26:57.928Z,11.88
2023-04-19T09:31:59.955Z,12.10
2023-04-19T09:37:22.795Z,13.70
2023-04-19T09:48:07.470Z,11.75
2023-04-19T09:53:10.878Z,11.50
2023-04-19T09:58:12.517Z,11.02
2023-04-19T10:03:18.378Z,11.90
2023-04-19T10:08:20.009Z,11.57
2023-04-19T10:13:26.712Z,10.77
2023-04-19T10:18:29.633Z,12.23
2023-04-19T10:23:37.475Z,9.48
2023-04-19T10:28:39.161Z,11.07
2023-04-19T10:33:41.419Z,11.50
2023-04-19T10:38:48.378Z,8.60
2023-04-19T10:43:56.135Z,11.60
2023-04-19T10:48:59.761Z,10.93
2023-04-19T10:54:03.480Z,11.65
2023-04-19T10:59:08.139Z,11.35
2023-04-19T11:04:15.694Z,10.20
2023-04-19T11:09:24.540Z,11.98
2023-04-19T11:14:27.235Z,11.07
2023-04-19T11:19:28.926Z,9.77
2023-04-19T11:24:30.543Z,9.23
2023-04-19T11:29:32.145Z,9.85
2023-04-19T11:34:39.042Z,9.90
2023-04-19T11:39:49.098Z,10.73
2023-04-19T11:44:52.096Z,10.40
2023-04-19T11:49:56.240Z,10.27
2023-04-19T11:55:18.243Z,12.43
2023-04-19T12:00:28.492Z,11.35
2023-04-19T12:05:30.577Z,12.00
2023-04-19T12:10:32.820Z,13.00
2023-04-19T12:15:44.967Z,9.77
2023-04-19T12:20:50.921Z,13.45
2023-04-19T12:25:52.596Z,12.18
2023-04-19T12:30:54.177Z,12.82
2023-04-19T12:35:55.733Z,11.93
2023-04-19T12:40:57.319Z,12.48
2023-04-19T12:45:59.553Z,13.23
2023-04-19T12:51:01.195Z,15.00
2023-04-19T12:56:02.822Z,18.77
2023-04-19T13:01:05.001Z,19.20
2023-04-19T13:06:07.241Z,19.80
2023-04-19T13:11:08.789Z,18.75
2023-04-19T13:16:11.079Z,19.33
2023-04-19T13:21:13.199Z,17.77
2023-04-19T13:26:15.815Z,22.05
2023-04-19T13:31:17.430Z,22.55
2023-04-19T13:36:19.236Z,23.73
2023-04-19T13:41:21.342Z,21.65
2023-04-19T13:46:23.214Z,22.17
2023-04-19T13:51:24.965Z,20.40
2023-04-19T13:56:26.785Z,22.65
2023-04-19T14:01:28.485Z,23.15
2023-04-19T14:06:30.093Z,24.95
2023-04-19T14:11:31.650Z,22.67
2023-04-19T14:16:33.066Z,22.00
2023-04-19T14:21:38.577Z,23.00
2023-04-19T14:26:40.160Z,22.98
2023-04-19T14:31:41.686Z,19.10
2023-04-19T14:36:43.220Z,20.10
2023-04-19T14:41:47.106Z,19.77
2023-04-19T14:46:48.612Z,20.13
2023-04-19T14:51:52.018Z,18.52
2023-04-19T14:56:53.772Z,16.75
2023-04-19T15:01:55.376Z,16.33
2023-04-19T15:06:56.906Z,17.67
2023-04-19T15:11:58.426Z,20.05
2023-04-19T15:17:00.035Z,17.38
2023-04-19T15:22:03.909Z,13.23
2023-04-19T15:27:05.575Z,18.35
2023-04-19T15:32:07.400Z,12.57
2023-04-19T15:37:11.357Z,13.02
2023-04-19T15:42:13.009Z,13.65
2023-04-19T15:47:14.621Z,14.23
2023-04-19T15:52:16.208Z,10.93
2023-04-19T15:57:18.250Z,11.45
2023-04-19T16:02:19.945Z,13.57
2023-04-19T16:07:21.761Z,12.68
2023-04-19T16:12:23.919Z,13.98
2023-04-19T16:17:25.515Z,12.07
2023-04-19T16:22:27.112Z,12.45
2023-04-19T16:27:28.669Z,14.88
2023-04-19T16:32:30.332Z,9.90
2023-04-19T16:37:32.791Z,7.03
2023-04-19T16:42:35.497Z,7.47
2023-04-19T16:47:37.090Z,6.78
2023-04-19T16:52:38.724Z,6.88
2023-04-19T16:57:40.387Z,5.90
2023-04-19T17:02:42.034Z,6.53
2023-04-19T17:07:43.709Z,5.65
2023-04-19T17:12:45.238Z,5.45
2023-04-19T17:17:46.853Z,5.82
2023-04-19T17:22:48.391Z,6.32
2023-04-19T17:27:50.820Z,4.28
2023-04-19T17:32:52.620Z,4.70
2023-04-19T17:37:54.265Z,4.85
2023-04-19T17:42:55.883Z,5.25
2023-04-19T17:47:57.446Z,7.93
2023-04-19T17:52:59.008Z,3.88
2023-04-19T17:58:00.750Z,5.10
2023-04-19T18:03:02.343Z,9.20
2023-04-19T18:08:04.481Z,5.60
2023-04-19T18:13:06.094Z,4.75
2023-04-19T18:18:07.757Z,5.95
2023-04-19T18:23:09.414Z,6.13
2023-04-19T18:28:10.945Z,7.07
2023-04-19T18:33:12.619Z,4.72
2023-04-19T18:38:14.247Z,3.58
2023-04-19T18:43:16.307Z,3.45
2023-04-19T18:48:17.856Z,2.10
2023-04-19T18:53:19.434Z,2.45
2023-04-19T18:58:21.022Z,2.72
2023-04-19T19:03:43.848Z,3.55
2023-04-19T19:08:45.281Z,4.45
2023-04-19T19:13:47.246Z,3.80
2023-04-19T19:18:48.816Z,3.60
2023-04-19T19:23:52.559Z,3.67
2023-04-19T19:28:54.324Z,3.45
2023-04-19T19:34:14.745Z,3.03
2023-04-19T19:39:17.813Z,3.20
2023-04-19T19:44:19.616Z,4.15
2023-04-19T19:49:21.865Z,4.38
2023-04-19T19:54:23.713Z,3.28
2023-04-19T19:59:30.125Z,4.32
2023-04-19T20:04:35.192Z,3.25
2023-04-19T20:09:37.059Z,5.25
2023-04-19T20:14:38.822Z,3.40
2023-04-19T20:19:42.474Z,3.22
2023-04-19T20:24:45.715Z,4.35
2023-04-19T20:29:47.313Z,3.03
2023-04-19T20:34:48.852Z,4.07
2023-04-19T20:39:50.485Z,3.30
2023-04-19T20:44:52.170Z,3.80
2023-04-19T20:49:53.710Z,4.82
2023-04-19T20:54:56.842Z,4.35
2023-04-19T20:59:58.886Z,5.50
2023-04-19T21:05:00.591Z,4.30
2023-04-19T21:10:02.174Z,6.10
2023-04-19T21:15:04.926Z,4.50
2023-04-19T21:20:12.263Z,7.22
2023-04-19T21:25:14.069Z,6.07
2023-04-19T21:30:16.644Z,4.32
2023-04-19T21:35:18.636Z,6.78
2023-04-19T21:40:20.238Z,4.85
2023-04-19T21:45:21.781Z,5.10
2023-04-19T21:50:23.344Z,5.47
2023-04-19T21:55:25.140Z,5.20
2023-04-19T22:00:26.678Z,4.50
2023-04-19T22:05:28.248Z,5.05
2023-04-19T22:10:30.081Z,4.65
2023-04-19T22:15:31.773Z,5.00
2023-04-19T22:20:33.811Z,4.80
2023-04-19T22:25:35.564Z,4.55
2023-04-19T22:30:37.116Z,6.68
2023-04-19T22:35:38.648Z,5.47
2023-04-19T22:40:40.365Z,6.82
2023-04-19T22:45:44.550Z,5.40
2023-04-19T22:50:46.902Z,7.22
2023-04-19T22:55:48.579Z,6.07
2023-04-19T23:00:50.226Z,6.20
2023-04-19T23:05:54.226Z,5.65
2023-04-19T23:10:55.929Z,8.05
2023-04-19T23:15:58.434Z,8.27
2023-04-19T23:21:00.019Z,5.85
2023-04-19T23:26:01.635Z,8.38
2023-04-19T23:31:03.281Z,5.25
2023-04-19T23:36:05.132Z,5.68
2023-04-19T23:41:09.374Z,6.32
2023-04-19T23:46:10.974Z,5.55
2023-04-19T23:51:12.822Z,5.57
2023-04-19T23:56:14.397Z,5.32
